CheckWX is a tool to help pilots better visualize weather data.  It is not intended as a substitute for an official pre-flight weather briefing.

02:08:45 UTC

KFAR METAR
Hector International Airport
Fargo, North Dakota, USA
Current

16 mins ago

KFAR 180153Z 34014KT 10SM CLR M16/M18 A3027 RMK AO2 SLP278 T11561178
Observed
Feb-18 @ 01:53 UTC
Wind
  • 340° at 14 KTS
Visibility
10 SM
Flight Rules
VFR
Cloud Levels
  • Clear skies
Temperature
-16°C / 3°F
Dewpoint
-18°C / -0°F
Humidity
85%
Altimeter
30.27" Hg
Pressure
1027.8 hPa
Previous

1 hour ago

KFAR 180053Z 34013KT 10SM CLR M14/M17 A3025 RMK AO2 SLP269 T11441172
Observed
Feb-18 @ 00:53 UTC
Wind
  • 340° at 13 KTS
Visibility
10 SM
Flight Rules
VFR
Cloud Levels
  • Clear skies
Temperature
-14°C / 7°F
Dewpoint
-17°C / 1°F
Humidity
78%
Altimeter
30.25" Hg
Pressure
1026.9 hPa
Previous

2 hours ago

KFAR 172353Z 34013KT 10SM CLR M14/M16 A3022 RMK AO2 SLP258 T11391161 11100 21139 53021
Observed
Feb-17 @ 23:53 UTC
Wind
  • 340° at 13 KTS
Visibility
10 SM
Flight Rules
VFR
Cloud Levels
  • Clear skies
Temperature
-14°C / 7°F
Dewpoint
-16°C / 3°F
Humidity
85%
Altimeter
30.22" Hg
Pressure
1025.8 hPa